createdAt,value
2017-11-21T06:16:11.536Z,37.53
2017-11-21T06:18:56.818Z,44.00
2017-11-21T06:24:31.882Z,40.67
2017-11-21T06:31:00.101Z,56.78
2017-11-21T06:33:27.804Z,35.67
2017-11-21T06:35:56.510Z,56.22
2017-11-21T06:38:36.597Z,41.22
2017-11-21T06:41:04.933Z,42.75
2017-11-21T06:49:15.515Z,51.58
2017-11-21T06:51:43.196Z,53.25
2017-11-21T06:54:10.797Z,54.63
2017-11-21T06:56:42.058Z,56.63
2017-11-21T06:59:10.203Z,50.22
2017-11-21T07:01:53.210Z,59.83
2017-11-21T07:04:20.797Z,51.42
2017-11-21T07:06:49.175Z,60.88
2017-11-21T07:09:17.547Z,53.35
2017-11-21T07:11:46.006Z,57.67
2017-11-21T07:14:38.054Z,53.60
2017-11-21T07:17:33.072Z,51.90
2017-11-21T07:20:01.502Z,48.50
2017-11-21T07:22:29.173Z,57.08
2017-11-21T07:25:01.160Z,62.65
2017-11-21T07:27:28.774Z,59.10
2017-11-21T07:29:56.471Z,61.83
2017-11-21T07:32:24.114Z,60.28
2017-11-21T07:34:51.719Z,62.80
2017-11-21T07:37:20.158Z,59.03
2017-11-21T07:39:47.823Z,66.43
2017-11-21T07:42:15.475Z,61.80
2017-11-21T07:44:43.164Z,66.30
2017-11-21T07:47:10.789Z,60.67
2017-11-21T07:49:39.203Z,67.05
2017-11-21T07:52:10.952Z,68.18
2017-11-21T07:54:38.639Z,66.40
2017-11-21T07:57:07.039Z,62.78
2017-11-21T07:59:34.656Z,64.80
2017-11-21T08:02:02.323Z,62.27
2017-11-21T08:04:32.751Z,63.47
2017-11-21T08:07:02.149Z,61.55
2017-11-21T08:09:29.879Z,56.17
2017-11-21T08:11:57.528Z,58.00
2017-11-21T08:14:25.275Z,56.33
2017-11-21T08:16:52.872Z,56.60
2017-11-21T08:19:20.517Z,60.67
2017-11-21T08:21:48.128Z,60.83
2017-11-21T08:24:22.655Z,60.60
2017-11-21T08:27:00.751Z,59.87
2017-11-21T08:29:28.601Z,69.17
2017-11-21T08:31:57.000Z,63.43
2017-11-21T08:34:24.641Z,80.63
2017-11-21T08:36:57.873Z,70.90
2017-11-21T08:39:25.646Z,64.97
2017-11-21T08:41:53.341Z,66.23
2017-11-21T08:44:21.045Z,62.40
2017-11-21T08:46:48.718Z,75.37
2017-11-21T08:49:16.364Z,66.03
2017-11-21T08:51:44.040Z,71.65
2017-11-21T08:54:11.675Z,70.20
2017-11-21T08:56:39.323Z,69.57
2017-11-21T08:59:07.013Z,66.93
2017-11-21T09:01:34.702Z,63.97
2017-11-21T09:04:04.097Z,66.23
2017-11-21T09:06:31.758Z,56.13
2017-11-21T09:08:59.478Z,54.93
2017-11-21T09:11:27.939Z,60.07
2017-11-21T09:13:56.403Z,53.10
2017-11-21T09:16:30.950Z,53.07
2017-11-21T09:18:58.628Z,47.10
2017-11-21T09:21:26.315Z,47.80
2017-11-21T09:24:01.567Z,53.00
2017-11-21T09:26:30.084Z,49.50
2017-11-21T09:29:08.282Z,47.00
2017-11-21T09:31:35.976Z,51.33
2017-11-21T09:34:04.602Z,44.33
2017-11-21T09:36:33.873Z,52.37
2017-11-21T09:39:02.336Z,47.57
2017-11-21T09:41:31.208Z,53.80
2017-11-21T09:43:58.853Z,45.43
2017-11-21T09:46:32.240Z,45.57
2017-11-21T09:48:59.903Z,43.77
2017-11-21T09:51:28.574Z,45.93
2017-11-21T09:53:56.255Z,43.30
2017-11-21T09:56:23.947Z,46.73
2017-11-21T09:58:51.580Z,45.97
2017-11-21T10:01:19.301Z,47.80
2017-11-21T10:04:07.843Z,43.20
2017-11-21T10:06:35.542Z,48.03
2017-11-21T10:09:03.172Z,46.90
2017-11-21T10:11:31.609Z,44.77
2017-11-21T10:13:59.313Z,43.97
2017-11-21T10:16:38.298Z,53.90
2017-11-21T10:19:06.766Z,48.97
2017-11-21T10:21:35.947Z,48.93
2017-11-21T10:24:03.615Z,45.00
2017-11-21T10:26:31.357Z,46.53
2017-11-21T10:29:00.005Z,46.43
2017-11-21T10:31:28.480Z,48.37
2017-11-21T10:34:00.945Z,41.30
2017-11-21T10:36:36.632Z,36.23
2017-11-21T10:39:04.280Z,36.43
2017-11-21T10:41:32.703Z,41.53
2017-11-21T10:44:00.326Z,45.53
2017-11-21T10:46:28.750Z,38.67
2017-11-21T10:48:56.497Z,45.60
2017-11-21T10:51:39.582Z,38.77
2017-11-21T10:54:08.061Z,35.97
2017-11-21T10:56:36.470Z,46.00
2017-11-21T10:59:04.068Z,41.03
2017-11-21T11:01:31.708Z,35.30
2017-11-21T11:03:59.373Z,36.83
2017-11-21T11:06:27.060Z,33.77
2017-11-21T11:08:54.693Z,29.23
2017-11-21T11:11:22.317Z,31.63
2017-11-21T11:13:50.715Z,24.67
2017-11-21T11:16:18.324Z,26.00
2017-11-21T11:18:46.043Z,23.90
2017-11-21T11:21:14.770Z,22.00
2017-11-21T11:23:42.447Z,26.20
2017-11-21T11:26:10.144Z,22.27
2017-11-21T11:28:37.828Z,21.00
2017-11-21T11:31:05.533Z,22.23
2017-11-21T11:33:33.921Z,22.63
2017-11-21T11:36:01.644Z,19.33
2017-11-21T11:38:29.324Z,23.73
2017-11-21T11:40:57.010Z,17.53
2017-11-21T11:43:24.651Z,20.43
2017-11-21T11:45:52.311Z,26.33
2017-11-21T11:48:19.943Z,28.00
2017-11-21T11:50:47.581Z,23.23
2017-11-21T11:53:15.229Z,23.00
2017-11-21T11:55:42.869Z,23.07
2017-11-21T11:58:10.544Z,22.50
2017-11-21T12:00:38.208Z,17.97
2017-11-21T12:03:05.925Z,20.07
2017-11-21T12:05:33.560Z,19.23
2017-11-21T12:08:01.221Z,17.83
2017-11-21T12:10:32.585Z,20.20
2017-11-21T12:13:00.196Z,19.90
2017-11-21T12:15:27.889Z,17.67
2017-11-21T12:17:55.547Z,16.63
2017-11-21T12:20:23.273Z,18.67
2017-11-21T12:22:50.898Z,21.07
2017-11-21T12:25:18.561Z,22.20
2017-11-21T12:27:46.303Z,17.00
2017-11-21T12:30:14.009Z,19.73
2017-11-21T12:32:41.672Z,17.87
2017-11-21T12:35:09.304Z,15.60
2017-11-21T12:37:36.969Z,15.53
2017-11-21T12:40:04.601Z,12.30
2017-11-21T12:42:33.032Z,15.50
2017-11-21T12:45:00.695Z,14.77
2017-11-21T12:47:28.341Z,12.90
2017-11-21T12:49:55.924Z,11.33
2017-11-21T12:52:24.331Z,14.57
2017-11-21T12:54:51.941Z,14.00
2017-11-21T12:57:19.586Z,12.80
2017-11-21T12:59:47.269Z,12.10
2017-11-21T13:02:15.648Z,10.43
2017-11-21T13:05:04.082Z,11.77
2017-11-21T13:07:32.922Z,13.23
2017-11-21T13:10:00.642Z,12.60
2017-11-21T13:12:29.032Z,12.43
2017-11-21T13:14:56.668Z,13.47
2017-11-21T13:17:24.307Z,14.17
2017-11-21T13:19:51.969Z,12.33
2017-11-21T13:22:19.652Z,9.80
2017-11-21T13:24:47.299Z,10.33
2017-11-21T13:27:31.425Z,9.93
2017-11-21T13:30:00.552Z,8.87
2017-11-21T13:32:28.250Z,9.80
2017-11-21T13:35:11.183Z,8.77
2017-11-21T13:37:55.578Z,8.53
2017-11-21T13:40:23.225Z,8.73
2017-11-21T13:43:08.434Z,10.17
2017-11-21T13:48:24.047Z,10.27
2017-11-21T13:50:56.427Z,10.80
2017-11-21T13:53:24.153Z,9.57
2017-11-21T13:55:51.753Z,10.33
2017-11-21T13:58:20.199Z,10.10
2017-11-21T14:00:49.043Z,10.67
2017-11-21T14:03:16.646Z,7.03
2017-11-21T14:05:54.902Z,7.67
2017-11-21T14:08:22.651Z,6.67
2017-11-21T14:10:53.926Z,9.60
2017-11-21T14:13:24.587Z,6.27
2017-11-21T14:15:52.286Z,7.90
2017-11-21T14:18:19.908Z,9.07
2017-11-21T14:20:56.401Z,7.40
2017-11-21T14:23:24.833Z,14.80
2017-11-21T14:25:52.484Z,11.20
2017-11-21T14:28:20.092Z,9.70
2017-11-21T14:30:48.565Z,10.37
2017-11-21T14:33:16.191Z,10.27
2017-11-21T14:35:43.880Z,13.43
2017-11-21T14:38:11.526Z,12.17
2017-11-21T14:40:39.203Z,11.37
2017-11-21T14:43:32.276Z,11.00
2017-11-21T14:45:59.928Z,10.83
2017-11-21T14:48:27.579Z,10.97
2017-11-21T14:50:55.256Z,14.53
2017-11-21T14:56:24.333Z,10.07
2017-11-21T14:58:51.970Z,14.60
2017-11-21T15:01:24.268Z,11.67
2017-11-21T15:03:51.881Z,10.33
2017-11-21T15:06:20.260Z,10.53
2017-11-21T15:08:47.926Z,9.93
2017-11-21T15:11:17.277Z,9.43
2017-11-21T15:13:45.000Z,10.27
2017-11-21T15:16:12.748Z,8.03
2017-11-21T15:18:44.342Z,12.83
2017-11-21T15:21:16.093Z,9.60
2017-11-21T15:23:47.150Z,9.00
2017-11-21T15:26:14.818Z,12.20
2017-11-21T15:28:46.732Z,9.10
2017-11-21T15:31:14.686Z,12.87
2017-11-21T15:33:51.071Z,11.80
2017-11-21T15:36:25.652Z,10.73
2017-11-21T15:38:53.861Z,14.40
2017-11-21T15:41:23.421Z,12.10
2017-11-21T15:43:52.457Z,13.40
2017-11-21T15:46:21.173Z,15.70
2017-11-21T15:49:08.384Z,16.97
2017-11-21T15:51:36.041Z,16.37
2017-11-21T15:54:03.758Z,19.37
2017-11-21T15:56:33.607Z,18.97
2017-11-21T15:59:02.985Z,20.77
2017-11-21T16:01:41.405Z,22.97
2017-11-21T16:04:09.144Z,24.57
2017-11-21T16:06:38.299Z,31.07
2017-11-21T16:09:06.032Z,26.13
2017-11-21T16:11:33.716Z,24.87
2017-11-21T16:14:01.348Z,25.87
2017-11-21T16:16:36.861Z,29.70
2017-11-21T16:19:04.431Z,35.53
2017-11-21T16:21:31.995Z,35.17
2017-11-21T16:24:00.418Z,38.03
2017-11-21T16:26:28.093Z,41.87
2017-11-21T16:28:55.673Z,41.23
2017-11-21T16:31:23.280Z,37.77
2017-11-21T16:33:53.448Z,46.90
2017-11-21T16:36:21.158Z,50.27
2017-11-21T16:38:48.818Z,45.03
2017-11-21T16:41:16.622Z,53.50
2017-11-21T16:43:44.325Z,52.13
2017-11-21T16:46:13.955Z,63.90
2017-11-21T16:48:42.319Z,61.25
2017-11-21T16:51:10.065Z,66.07
2017-11-21T19:31:02.128Z,56.93
2017-11-21T19:33:31.445Z,56.43
2017-11-21T19:36:16.615Z,56.03
2017-11-21T20:16:42.470Z,49.30
2017-11-21T20:19:09.981Z,51.07
2017-11-21T20:21:37.734Z,50.73
2017-11-21T20:24:05.413Z,49.40
2017-11-21T20:26:33.163Z,52.20
2017-11-21T20:29:00.812Z,53.73
2017-11-21T20:31:28.487Z,53.67
2017-11-21T20:33:56.682Z,54.20
2017-11-21T20:36:25.098Z,50.12
2017-11-21T20:38:52.726Z,50.63
2017-11-21T20:41:20.340Z,51.60
2017-11-21T20:43:47.976Z,50.00
2017-11-21T20:46:15.720Z,55.67
2017-11-21T20:48:43.383Z,53.00
2017-11-21T20:51:11.020Z,51.53
2017-11-21T20:53:38.674Z,53.03
2017-11-21T20:56:06.304Z,48.13
2017-11-21T20:58:33.964Z,51.77
2017-11-21T21:01:01.695Z,48.83
2017-11-21T21:03:30.126Z,56.33
2017-11-21T21:05:58.405Z,49.70
2017-11-21T21:08:26.064Z,47.30
2017-11-21T21:10:53.760Z,47.53
2017-11-21T21:13:23.136Z,52.23
2017-11-21T21:15:51.552Z,53.22
2017-11-21T21:18:19.201Z,57.92
2017-11-21T21:20:47.637Z,47.80
2017-11-21T21:23:15.359Z,45.73
2017-11-21T21:25:43.007Z,44.33
2017-11-21T21:28:11.488Z,51.30
2017-11-21T21:30:39.132Z,49.27
2017-11-21T21:33:06.770Z,47.27
2017-11-21T21:35:34.601Z,46.42
2017-11-21T21:38:02.258Z,42.75
2017-11-21T21:40:29.904Z,48.20
2017-11-21T21:42:58.214Z,45.17
2017-11-21T21:45:25.810Z,54.37
2017-11-21T21:47:54.229Z,46.85
2017-11-21T21:50:21.882Z,49.63
2017-11-21T21:52:49.411Z,52.35
2017-11-21T21:55:17.724Z,45.85
2017-11-21T21:57:45.291Z,51.97
2017-11-21T22:00:12.846Z,46.33
2017-11-21T22:02:40.497Z,47.47
2017-11-21T22:05:08.061Z,46.65
2017-11-21T22:07:35.820Z,48.30
2017-11-21T22:10:03.691Z,50.37
2017-11-21T22:12:31.391Z,44.63
2017-11-21T22:14:59.120Z,44.25
2017-11-21T22:17:26.700Z,45.55
2017-11-21T22:19:54.246Z,47.88
2017-11-21T22:22:21.841Z,44.75
2017-11-21T22:24:49.369Z,47.50
2017-11-21T22:27:16.955Z,45.42
2017-11-21T22:29:44.488Z,47.45
2017-11-21T22:32:12.094Z,43.42
2017-11-21T22:34:40.388Z,45.12
2017-11-21T22:37:08.685Z,41.45
2017-11-21T22:39:36.348Z,46.10
2017-11-21T22:42:03.969Z,47.60
2017-11-21T22:44:31.507Z,49.30
2017-11-21T22:46:59.104Z,45.00
2017-11-21T22:49:28.668Z,46.15
2017-11-21T22:52:34.402Z,45.92
2017-11-21T22:55:02.217Z,49.92
2017-11-21T22:57:30.878Z,41.63
2017-11-21T23:00:00.494Z,48.28
2017-11-21T23:02:30.121Z,41.15
2017-11-21T23:05:04.822Z,40.15
2017-11-21T23:07:33.651Z,46.45
2017-11-21T23:10:01.328Z,46.03
2017-11-21T23:12:31.325Z,43.83
2017-11-21T23:14:59.995Z,42.22
2017-11-21T23:20:25.221Z,43.60
2017-11-21T23:22:53.700Z,43.17
2017-11-21T23:25:21.423Z,45.83
2017-11-21T23:27:49.952Z,47.03
2017-11-21T23:50:51.408Z,47.92
2017-11-21T23:53:45.380Z,47.83
2017-11-21T23:56:13.097Z,50.25
